createdAt,value
2018-11-02T21:05:20.398Z,96289.20
2018-11-02T21:07:49.972Z,96293.80
2018-11-02T21:10:20.143Z,96289.64
2018-11-02T21:14:38.297Z,96288.88
2018-11-02T21:17:07.630Z,96297.37
2018-11-02T21:19:37.340Z,96292.05
2018-11-02T21:22:09.603Z,96303.81
2018-11-02T21:41:34.276Z,96227.92
2018-11-02T21:44:03.590Z,96222.56
2018-11-02T21:46:32.422Z,96237.48
2018-11-02T21:49:01.372Z,96240.00
2018-11-02T21:51:30.677Z,96247.73
2018-11-02T21:55:19.260Z,96230.22
2018-11-02T21:57:48.178Z,96228.22
2018-11-02T22:00:20.430Z,96238.11
2018-11-02T22:02:49.352Z,96235.96
2018-11-02T22:05:21.124Z,96231.30
2018-11-02T22:07:50.777Z,96238.04
2018-11-02T22:10:19.910Z,96239.30
2018-11-02T22:12:48.898Z,96235.61
2018-11-02T22:15:17.861Z,96240.08
2018-11-02T22:17:46.818Z,96236.86
2018-11-02T22:20:16.324Z,96236.23
2018-11-02T22:22:45.281Z,96243.13
2018-11-02T22:25:14.992Z,96241.91
2018-11-02T22:27:43.916Z,96243.61
2018-11-02T22:30:14.320Z,96239.98
2018-11-02T22:32:43.262Z,96241.77
2018-11-02T22:35:12.852Z,96238.63
2018-11-02T22:37:41.805Z,96242.20
2018-11-02T22:40:11.753Z,96242.31
2018-11-02T22:42:41.422Z,96244.41
2018-11-02T22:45:11.469Z,96241.52
2018-11-02T22:47:40.450Z,96241.27
2018-11-02T22:50:09.816Z,96241.98
2018-11-02T22:52:38.897Z,96244.77
2018-11-02T22:55:08.453Z,96250.09
2018-11-02T22:57:37.327Z,96252.44
2018-11-02T23:00:10.050Z,96245.75
2018-11-02T23:02:39.039Z,96252.32
2018-11-02T23:05:08.050Z,96250.64
2018-11-02T23:07:36.928Z,96247.63
2018-11-02T23:10:06.853Z,96241.68
2018-11-02T23:12:35.730Z,96245.25
2018-11-02T23:15:04.887Z,96247.50
2018-11-02T23:17:33.813Z,96255.31
2018-11-02T23:20:02.888Z,96251.39
2018-11-02T23:22:31.875Z,96252.75
2018-11-02T23:25:00.781Z,96255.38
2018-11-02T23:27:29.762Z,96246.45
2018-11-02T23:29:58.653Z,96257.78
2018-11-02T23:32:27.595Z,96253.58
2018-11-02T23:34:56.507Z,96255.33
2018-11-02T23:37:25.505Z,96254.94
2018-11-02T23:39:54.554Z,96256.15
2018-11-02T23:42:23.577Z,96250.23
2018-11-02T23:44:52.520Z,96263.58
2018-11-02T23:47:21.394Z,96267.56
2018-11-02T23:49:50.290Z,96263.27
2018-11-02T23:52:19.185Z,96264.16
2018-11-02T23:54:48.105Z,96263.45
2018-11-02T23:57:17.062Z,96266.67
2018-11-02T23:59:46.017Z,96255.90
